sensor_id;sensor_type;location;lat;lon;timestamp;P1;durP1;ratioP1;P2;durP2;ratioP2
20824;SDS011;10573;50.936;6.978;2023-12-07T00:00:03;26.15;;;17.42;;
20824;SDS011;10573;50.936;6.978;2023-12-07T00:02:29;26.65;;;17.48;;
20824;SDS011;10573;50.936;6.978;2023-12-07T00:04:54;30.40;;;18.40;;
20824;SDS011;10573;50.936;6.978;2023-12-07T00:07:20;28.10;;;18.10;;
20824;SDS011;10573;50.936;6.978;2023-12-07T00:09:45;31.20;;;18.23;;
20824;SDS011;10573;50.936;6.978;2023-12-07T00:12:10;27.58;;;18.63;;
20824;SDS011;10573;50.936;6.978;2023-12-07T00:14:36;28.80;;;18.83;;
20824;SDS011;10573;50.936;6.978;2023-12-07T00:17:01;30.90;;;19.13;;
20824;SDS011;10573;50.936;6.978;2023-12-07T00:19:27;26.83;;;18.20;;
20824;SDS011;10573;50.936;6.978;2023-12-07T00:21:52;29.27;;;19.03;;
20824;SDS011;10573;50.936;6.978;2023-12-07T00:24:18;27.37;;;19.10;;
20824;SDS011;10573;50.936;6.978;2023-12-07T00:26:43;32.70;;;20.35;;
20824;SDS011;10573;50.936;6.978;2023-12-07T00:29:08;30.03;;;19.30;;
20824;SDS011;10573;50.936;6.978;2023-12-07T00:31:34;31.50;;;19.83;;
20824;SDS011;10573;50.936;6.978;2023-12-07T00:33:59;27.75;;;18.65;;
20824;SDS011;10573;50.936;6.978;2023-12-07T00:36:25;28.00;;;18.52;;
20824;SDS011;10573;50.936;6.978;2023-12-07T00:38:51;30.80;;;19.52;;
20824;SDS011;10573;50.936;6.978;2023-12-07T00:41:16;26.87;;;18.20;;
20824;SDS011;10573;50.936;6.978;2023-12-07T00:43:42;26.77;;;18.75;;
20824;SDS011;10573;50.936;6.978;2023-12-07T00:46:07;27.02;;;18.42;;
20824;SDS011;10573;50.936;6.978;2023-12-07T00:48:33;25.90;;;18.00;;
20824;SDS011;10573;50.936;6.978;2023-12-07T00:50:58;26.13;;;18.63;;
20824;SDS011;10573;50.936;6.978;2023-12-07T00:53:24;26.43;;;18.17;;
20824;SDS011;10573;50.936;6.978;2023-12-07T00:55:49;26.80;;;17.67;;
20824;SDS011;10573;50.936;6.978;2023-12-07T00:58:14;24.80;;;17.20;;
20824;SDS011;10573;50.936;6.978;2023-12-07T01:00:40;27.53;;;18.33;;
20824;SDS011;10573;50.936;6.978;2023-12-07T01:03:05;27.17;;;18.63;;
20824;SDS011;10573;50.936;6.978;2023-12-07T01:05:30;26.58;;;18.77;;
20824;SDS011;10573;50.936;6.978;2023-12-07T01:07:56;27.83;;;18.60;;
20824;SDS011;10573;50.936;6.978;2023-12-07T01:10:21;26.83;;;18.83;;
20824;SDS011;10573;50.936;6.978;2023-12-07T01:12:46;26.40;;;18.48;;
20824;SDS011;10573;50.936;6.978;2023-12-07T01:15:12;30.10;;;20.70;;
20824;SDS011;10573;50.936;6.978;2023-12-07T01:17:37;31.93;;;20.33;;
20824;SDS011;10573;50.936;6.978;2023-12-07T01:20:03;32.20;;;20.57;;
20824;SDS011;10573;50.936;6.978;2023-12-07T01:22:33;28.33;;;19.77;;
20824;SDS011;10573;50.936;6.978;2023-12-07T01:24:58;31.17;;;19.57;;
20824;SDS011;10573;50.936;6.978;2023-12-07T01:27:23;25.10;;;18.10;;
20824;SDS011;10573;50.936;6.978;2023-12-07T01:29:49;27.70;;;19.50;;
20824;SDS011;10573;50.936;6.978;2023-12-07T01:32:14;27.67;;;19.57;;
20824;SDS011;10573;50.936;6.978;2023-12-07T01:34:39;28.02;;;19.63;;
20824;SDS011;10573;50.936;6.978;2023-12-07T01:37:05;29.37;;;20.10;;
20824;SDS011;10573;50.936;6.978;2023-12-07T01:39:30;30.03;;;20.10;;
20824;SDS011;10573;50.936;6.978;2023-12-07T01:41:55;27.63;;;20.17;;
20824;SDS011;10573;50.936;6.978;2023-12-07T01:44:21;29.90;;;19.95;;
20824;SDS011;10573;50.936;6.978;2023-12-07T01:46:46;29.23;;;20.00;;
20824;SDS011;10573;50.936;6.978;2023-12-07T01:49:12;30.70;;;20.90;;
20824;SDS011;10573;50.936;6.978;2023-12-07T01:51:37;29.03;;;20.43;;
20824;SDS011;10573;50.936;6.978;2023-12-07T01:54:03;30.75;;;20.00;;
20824;SDS011;10573;50.936;6.978;2023-12-07T01:56:29;30.07;;;20.73;;
20824;SDS011;10573;50.936;6.978;2023-12-07T01:58:55;29.27;;;20.15;;
20824;SDS011;10573;50.936;6.978;2023-12-07T02:01:21;29.30;;;20.27;;
20824;SDS011;10573;50.936;6.978;2023-12-07T02:03:46;30.80;;;20.48;;
20824;SDS011;10573;50.936;6.978;2023-12-07T02:06:11;32.08;;;20.25;;
20824;SDS011;10573;50.936;6.978;2023-12-07T02:08:38;27.95;;;20.58;;
20824;SDS011;10573;50.936;6.978;2023-12-07T02:11:07;29.58;;;20.30;;
20824;SDS011;10573;50.936;6.978;2023-12-07T02:13:34;28.20;;;19.58;;
20824;SDS011;10573;50.936;6.978;2023-12-07T02:16:05;29.27;;;20.17;;
20824;SDS011;10573;50.936;6.978;2023-12-07T02:18:53;27.20;;;19.25;;
20824;SDS011;10573;50.936;6.978;2023-12-07T02:21:32;27.83;;;19.25;;
20824;SDS011;10573;50.936;6.978;2023-12-07T02:24:03;28.63;;;20.38;;
20824;SDS011;10573;50.936;6.978;2023-12-07T02:26:43;26.58;;;18.95;;
20824;SDS011;10573;50.936;6.978;2023-12-07T02:29:14;27.90;;;19.20;;
20824;SDS011;10573;50.936;6.978;2023-12-07T02:31:40;27.30;;;19.80;;
20824;SDS011;10573;50.936;6.978;2023-12-07T02:34:05;28.50;;;19.73;;
20824;SDS011;10573;50.936;6.978;2023-12-07T02:36:31;28.23;;;19.47;;
20824;SDS011;10573;50.936;6.978;2023-12-07T02:38:59;26.97;;;18.40;;
20824;SDS011;10573;50.936;6.978;2023-12-07T02:41:28;26.15;;;18.58;;
20824;SDS011;10573;50.936;6.978;2023-12-07T02:43:56;27.73;;;18.75;;
20824;SDS011;10573;50.936;6.978;2023-12-07T02:46:22;27.95;;;18.60;;
20824;SDS011;10573;50.936;6.978;2023-12-07T02:48:49;27.55;;;18.10;;
20824;SDS011;10573;50.936;6.978;2023-12-07T02:51:14;29.63;;;19.93;;
20824;SDS011;10573;50.936;6.978;2023-12-07T02:53:40;28.55;;;18.25;;
20824;SDS011;10573;50.936;6.978;2023-12-07T02:56:05;27.03;;;18.57;;
20824;SDS011;10573;50.936;6.978;2023-12-07T02:58:31;24.77;;;17.83;;
20824;SDS011;10573;50.936;6.978;2023-12-07T03:00:56;24.77;;;17.60;;
20824;SDS011;10573;50.936;6.978;2023-12-07T03:03:22;27.93;;;18.50;;
20824;SDS011;10573;50.936;6.978;2023-12-07T03:05:47;24.40;;;17.23;;
20824;SDS011;10573;50.936;6.978;2023-12-07T03:08:12;25.20;;;18.10;;
20824;SDS011;10573;50.936;6.978;2023-12-07T03:10:38;29.00;;;17.47;;
20824;SDS011;10573;50.936;6.978;2023-12-07T03:13:03;24.73;;;17.55;;
20824;SDS011;10573;50.936;6.978;2023-12-07T03:15:28;24.83;;;18.07;;
20824;SDS011;10573;50.936;6.978;2023-12-07T03:17:54;26.00;;;17.97;;
20824;SDS011;10573;50.936;6.978;2023-12-07T03:20:19;25.58;;;17.67;;
20824;SDS011;10573;50.936;6.978;2023-12-07T03:22:45;23.20;;;16.20;;
20824;SDS011;10573;50.936;6.978;2023-12-07T03:25:10;25.30;;;17.30;;
20824;SDS011;10573;50.936;6.978;2023-12-07T03:27:36;25.07;;;17.53;;
20824;SDS011;10573;50.936;6.978;2023-12-07T03:30:01;23.88;;;17.33;;
20824;SDS011;10573;50.936;6.978;2023-12-07T03:32:27;22.35;;;17.25;;
20824;SDS011;10573;50.936;6.978;2023-12-07T03:34:52;23.25;;;16.55;;
20824;SDS011;10573;50.936;6.978;2023-12-07T03:37:18;24.83;;;17.20;;
20824;SDS011;10573;50.936;6.978;2023-12-07T03:39:43;20.17;;;15.30;;
20824;SDS011;10573;50.936;6.978;2023-12-07T03:42:08;22.50;;;15.53;;
20824;SDS011;10573;50.936;6.978;2023-12-07T03:44:34;23.13;;;15.90;;
20824;SDS011;10573;50.936;6.978;2023-12-07T03:46:59;23.83;;;16.13;;
20824;SDS011;10573;50.936;6.978;2023-12-07T03:49:24;21.75;;;15.60;;
20824;SDS011;10573;50.936;6.978;2023-12-07T03:51:50;24.87;;;15.90;;
20824;SDS011;10573;50.936;6.978;2023-12-07T03:54:15;23.57;;;15.83;;
20824;SDS011;10573;50.936;6.978;2023-12-07T03:56:40;20.57;;;15.57;;
20824;SDS011;10573;50.936;6.978;2023-12-07T03:59:06;21.27;;;15.68;;
20824;SDS011;10573;50.936;6.978;2023-12-07T04:01:31;19.83;;;15.93;;
20824;SDS011;10573;50.936;6.978;2023-12-07T04:03:57;21.13;;;15.43;;
20824;SDS011;10573;50.936;6.978;2023-12-07T04:06:23;23.60;;;15.93;;
20824;SDS011;10573;50.936;6.978;2023-12-07T04:08:49;22.55;;;15.43;;
20824;SDS011;10573;50.936;6.978;2023-12-07T04:11:14;22.10;;;15.65;;
20824;SDS011;10573;50.936;6.978;2023-12-07T04:13:41;22.77;;;15.60;;
20824;SDS011;10573;50.936;6.978;2023-12-07T04:16:10;18.02;;;14.15;;
20824;SDS011;10573;50.936;6.978;2023-12-07T04:18:36;20.65;;;14.15;;
20824;SDS011;10573;50.936;6.978;2023-12-07T04:21:02;19.48;;;14.02;;
20824;SDS011;10573;50.936;6.978;2023-12-07T04:23:28;19.77;;;14.30;;
20824;SDS011;10573;50.936;6.978;2023-12-07T04:25:53;19.20;;;14.47;;
20824;SDS011;10573;50.936;6.978;2023-12-07T04:28:18;21.43;;;14.30;;
20824;SDS011;10573;50.936;6.978;2023-12-07T04:30:44;20.35;;;14.05;;
20824;SDS011;10573;50.936;6.978;2023-12-07T04:33:09;18.30;;;13.80;;
20824;SDS011;10573;50.936;6.978;2023-12-07T04:35:34;17.63;;;13.70;;
20824;SDS011;10573;50.936;6.978;2023-12-07T04:38:00;21.55;;;13.30;;
20824;SDS011;10573;50.936;6.978;2023-12-07T04:40:26;16.30;;;12.23;;
20824;SDS011;10573;50.936;6.978;2023-12-07T04:42:51;19.58;;;12.57;;
20824;SDS011;10573;50.936;6.978;2023-12-07T04:45:17;16.10;;;12.57;;
20824;SDS011;10573;50.936;6.978;2023-12-07T04:47:42;17.57;;;12.13;;
20824;SDS011;10573;50.936;6.978;2023-12-07T04:50:08;19.60;;;12.77;;
20824;SDS011;10573;50.936;6.978;2023-12-07T04:52:34;15.98;;;12.15;;
20824;SDS011;10573;50.936;6.978;2023-12-07T04:55:00;18.38;;;11.80;;
20824;SDS011;10573;50.936;6.978;2023-12-07T04:57:25;18.83;;;12.15;;
20824;SDS011;10573;50.936;6.978;2023-12-07T04:59:51;13.70;;;11.40;;
20824;SDS011;10573;50.936;6.978;2023-12-07T05:02:16;14.43;;;11.30;;
20824;SDS011;10573;50.936;6.978;2023-12-07T05:04:42;14.75;;;10.57;;
20824;SDS011;10573;50.936;6.978;2023-12-07T05:07:08;17.40;;;11.33;;
20824;SDS011;10573;50.936;6.978;2023-12-07T05:09:34;15.10;;;10.83;;
20824;SDS011;10573;50.936;6.978;2023-12-07T05:11:59;14.07;;;10.55;;
20824;SDS011;10573;50.936;6.978;2023-12-07T05:14:25;14.93;;;10.90;;
20824;SDS011;10573;50.936;6.978;2023-12-07T05:16:51;18.08;;;10.60;;
20824;SDS011;10573;50.936;6.978;2023-12-07T05:19:20;18.00;;;11.32;;
20824;SDS011;10573;50.936;6.978;2023-12-07T05:21:49;16.00;;;10.73;;
20824;SDS011;10573;50.936;6.978;2023-12-07T05:24:15;14.77;;;10.60;;
20824;SDS011;10573;50.936;6.978;2023-12-07T05:26:44;16.93;;;10.73;;
20824;SDS011;10573;50.936;6.978;2023-12-07T05:29:13;15.57;;;10.60;;
20824;SDS011;10573;50.936;6.978;2023-12-07T05:31:39;14.70;;;10.63;;
20824;SDS011;10573;50.936;6.978;2023-12-07T05:34:05;15.88;;;10.75;;
20824;SDS011;10573;50.936;6.978;2023-12-07T05:36:31;13.95;;;10.00;;
20824;SDS011;10573;50.936;6.978;2023-12-07T05:38:57;17.47;;;10.77;;
20824;SDS011;10573;50.936;6.978;2023-12-07T05:41:22;16.50;;;11.40;;
20824;SDS011;10573;50.936;6.978;2023-12-07T05:43:48;21.23;;;12.93;;
20824;SDS011;10573;50.936;6.978;2023-12-07T05:46:14;16.13;;;11.47;;
20824;SDS011;10573;50.936;6.978;2023-12-07T05:48:40;15.27;;;10.02;;
20824;SDS011;10573;50.936;6.978;2023-12-07T05:51:06;13.90;;;10.57;;
20824;SDS011;10573;50.936;6.978;2023-12-07T05:53:37;14.90;;;10.50;;
20824;SDS011;10573;50.936;6.978;2023-12-07T05:56:03;13.80;;;10.17;;
20824;SDS011;10573;50.936;6.978;2023-12-07T05:58:29;16.48;;;10.90;;
20824;SDS011;10573;50.936;6.978;2023-12-07T06:00:55;14.97;;;10.93;;
20824;SDS011;10573;50.936;6.978;2023-12-07T06:03:20;16.50;;;10.90;;
20824;SDS011;10573;50.936;6.978;2023-12-07T06:05:46;17.00;;;10.47;;
20824;SDS011;10573;50.936;6.978;2023-12-07T06:08:11;17.67;;;10.73;;
20824;SDS011;10573;50.936;6.978;2023-12-07T06:10:37;14.77;;;10.40;;
20824;SDS011;10573;50.936;6.978;2023-12-07T06:13:03;16.83;;;11.55;;
20824;SDS011;10573;50.936;6.978;2023-12-07T06:15:30;14.25;;;11.40;;
20824;SDS011;10573;50.936;6.978;2023-12-07T06:17:55;16.27;;;11.20;;
20824;SDS011;10573;50.936;6.978;2023-12-07T06:20:22;15.93;;;11.17;;
20824;SDS011;10573;50.936;6.978;2023-12-07T06:22:47;16.67;;;11.07;;
20824;SDS011;10573;50.936;6.978;2023-12-07T06:25:13;15.27;;;11.47;;
20824;SDS011;10573;50.936;6.978;2023-12-07T06:27:38;17.25;;;11.95;;
20824;SDS011;10573;50.936;6.978;2023-12-07T06:30:04;16.03;;;11.67;;
20824;SDS011;10573;50.936;6.978;2023-12-07T06:32:33;16.95;;;11.30;;
20824;SDS011;10573;50.936;6.978;2023-12-07T06:34:59;14.95;;;11.55;;
20824;SDS011;10573;50.936;6.978;2023-12-07T06:37:24;16.75;;;11.45;;
20824;SDS011;10573;50.936;6.978;2023-12-07T06:39:50;15.67;;;11.70;;
20824;SDS011;10573;50.936;6.978;2023-12-07T06:42:15;16.58;;;12.00;;
20824;SDS011;10573;50.936;6.978;2023-12-07T06:44:50;18.35;;;12.32;;
20824;SDS011;10573;50.936;6.978;2023-12-07T06:47:15;17.45;;;11.98;;
20824;SDS011;10573;50.936;6.978;2023-12-07T06:49:41;16.88;;;12.20;;
20824;SDS011;10573;50.936;6.978;2023-12-07T06:52:07;18.00;;;12.88;;
20824;SDS011;10573;50.936;6.978;2023-12-07T06:54:33;19.13;;;13.05;;
20824;SDS011;10573;50.936;6.978;2023-12-07T06:56:58;16.27;;;11.95;;
20824;SDS011;10573;50.936;6.978;2023-12-07T06:59:24;19.13;;;12.25;;
20824;SDS011;10573;50.936;6.978;2023-12-07T07:01:49;18.27;;;12.23;;
20824;SDS011;10573;50.936;6.978;2023-12-07T07:04:15;17.40;;;12.50;;
20824;SDS011;10573;50.936;6.978;2023-12-07T07:06:41;18.70;;;12.40;;
20824;SDS011;10573;50.936;6.978;2023-12-07T07:09:06;16.40;;;11.70;;
20824;SDS011;10573;50.936;6.978;2023-12-07T07:11:32;18.93;;;12.53;;
20824;SDS011;10573;50.936;6.978;2023-12-07T07:13:57;17.73;;;11.67;;
20824;SDS011;10573;50.936;6.978;2023-12-07T07:16:22;19.30;;;12.75;;
20824;SDS011;10573;50.936;6.978;2023-12-07T07:18:48;15.63;;;11.60;;
20824;SDS011;10573;50.936;6.978;2023-12-07T07:21:13;17.10;;;12.03;;
20824;SDS011;10573;50.936;6.978;2023-12-07T07:23:38;16.57;;;11.93;;
20824;SDS011;10573;50.936;6.978;2023-12-07T07:26:04;19.85;;;12.50;;
20824;SDS011;10573;50.936;6.978;2023-12-07T07:28:29;19.70;;;12.53;;
20824;SDS011;10573;50.936;6.978;2023-12-07T07:30:55;20.52;;;13.43;;
20824;SDS011;10573;50.936;6.978;2023-12-07T07:33:20;22.47;;;13.30;;
20824;SDS011;10573;50.936;6.978;2023-12-07T07:35:46;21.00;;;13.03;;
20824;SDS011;10573;50.936;6.978;2023-12-07T07:38:11;20.17;;;13.20;;
20824;SDS011;10573;50.936;6.978;2023-12-07T07:40:37;22.80;;;13.93;;
20824;SDS011;10573;50.936;6.978;2023-12-07T07:43:02;20.83;;;13.68;;
20824;SDS011;10573;50.936;6.978;2023-12-07T07:45:27;18.53;;;13.13;;
20824;SDS011;10573;50.936;6.978;2023-12-07T07:47:53;19.40;;;13.73;;
20824;SDS011;10573;50.936;6.978;2023-12-07T07:50:19;21.03;;;13.93;;
20824;SDS011;10573;50.936;6.978;2023-12-07T07:52:44;21.97;;;13.53;;
20824;SDS011;10573;50.936;6.978;2023-12-07T07:55:10;19.93;;;14.70;;
20824;SDS011;10573;50.936;6.978;2023-12-07T07:57:36;20.67;;;14.15;;
20824;SDS011;10573;50.936;6.978;2023-12-07T08:00:02;19.53;;;14.37;;
20824;SDS011;10573;50.936;6.978;2023-12-07T08:02:30;20.30;;;13.98;;
20824;SDS011;10573;50.936;6.978;2023-12-07T08:04:57;20.05;;;14.30;;
20824;SDS011;10573;50.936;6.978;2023-12-07T08:07:22;21.43;;;13.47;;
20824;SDS011;10573;50.936;6.978;2023-12-07T08:09:50;21.25;;;13.52;;
20824;SDS011;10573;50.936;6.978;2023-12-07T08:12:15;21.07;;;13.87;;
20824;SDS011;10573;50.936;6.978;2023-12-07T08:14:40;20.48;;;13.77;;
20824;SDS011;10573;50.936;6.978;2023-12-07T08:17:08;19.67;;;14.13;;
20824;SDS011;10573;50.936;6.978;2023-12-07T08:19:34;21.30;;;14.35;;
20824;SDS011;10573;50.936;6.978;2023-12-07T08:21:59;19.98;;;14.02;;
20824;SDS011;10573;50.936;6.978;2023-12-07T08:24:25;19.23;;;13.70;;
20824;SDS011;10573;50.936;6.978;2023-12-07T08:26:50;21.23;;;14.03;;
20824;SDS011;10573;50.936;6.978;2023-12-07T08:29:15;19.87;;;14.30;;
20824;SDS011;10573;50.936;6.978;2023-12-07T08:31:41;23.45;;;14.48;;
20824;SDS011;10573;50.936;6.978;2023-12-07T08:34:07;22.30;;;13.98;;
20824;SDS011;10573;50.936;6.978;2023-12-07T08:36:32;20.48;;;14.55;;
20824;SDS011;10573;50.936;6.978;2023-12-07T08:38:59;25.57;;;14.87;;
20824;SDS011;10573;50.936;6.978;2023-12-07T08:41:24;21.63;;;14.57;;
20824;SDS011;10573;50.936;6.978;2023-12-07T08:43:50;19.50;;;13.70;;
20824;SDS011;10573;50.936;6.978;2023-12-07T08:46:15;20.27;;;14.20;;
20824;SDS011;10573;50.936;6.978;2023-12-07T08:48:40;19.50;;;13.73;;
20824;SDS011;10573;50.936;6.978;2023-12-07T08:51:06;22.25;;;14.77;;
20824;SDS011;10573;50.936;6.978;2023-12-07T08:53:33;21.45;;;14.35;;
20824;SDS011;10573;50.936;6.978;2023-12-07T08:56:00;21.90;;;14.57;;
20824;SDS011;10573;50.936;6.978;2023-12-07T08:58:26;21.67;;;14.13;;
20824;SDS011;10573;50.936;6.978;2023-12-07T09:00:51;24.40;;;14.53;;
20824;SDS011;10573;50.936;6.978;2023-12-07T09:03:17;20.30;;;13.83;;
20824;SDS011;10573;50.936;6.978;2023-12-07T09:05:43;20.07;;;14.03;;
20824;SDS011;10573;50.936;6.978;2023-12-07T09:08:08;20.70;;;14.40;;
20824;SDS011;10573;50.936;6.978;2023-12-07T09:10:35;22.13;;;13.80;;
20824;SDS011;10573;50.936;6.978;2023-12-07T09:13:01;18.75;;;13.63;;
20824;SDS011;10573;50.936;6.978;2023-12-07T09:15:27;20.67;;;13.88;;
20824;SDS011;10573;50.936;6.978;2023-12-07T09:17:53;21.23;;;13.55;;
20824;SDS011;10573;50.936;6.978;2023-12-07T09:20:18;20.30;;;14.43;;
20824;SDS011;10573;50.936;6.978;2023-12-07T09:22:44;20.75;;;14.68;;
20824;SDS011;10573;50.936;6.978;2023-12-07T09:25:11;23.85;;;14.68;;
20824;SDS011;10573;50.936;6.978;2023-12-07T09:27:38;24.33;;;14.70;;
20824;SDS011;10573;50.936;6.978;2023-12-07T09:30:07;22.15;;;14.65;;
20824;SDS011;10573;50.936;6.978;2023-12-07T09:32:39;21.25;;;14.85;;
20824;SDS011;10573;50.936;6.978;2023-12-07T09:35:05;23.33;;;15.02;;
20824;SDS011;10573;50.936;6.978;2023-12-07T09:37:43;20.73;;;14.30;;
20824;SDS011;10573;50.936;6.978;2023-12-07T09:40:14;22.27;;;14.80;;
20824;SDS011;10573;50.936;6.978;2023-12-07T09:42:42;22.92;;;15.45;;
20824;SDS011;10573;50.936;6.978;2023-12-07T09:45:08;20.30;;;15.00;;
20824;SDS011;10573;50.936;6.978;2023-12-07T09:47:34;18.52;;;14.50;;
20824;SDS011;10573;50.936;6.978;2023-12-07T09:50:03;21.77;;;14.52;;
20824;SDS011;10573;50.936;6.978;2023-12-07T09:52:30;21.58;;;14.25;;
20824;SDS011;10573;50.936;6.978;2023-12-07T09:54:56;22.17;;;14.00;;
20824;SDS011;10573;50.936;6.978;2023-12-07T09:57:22;20.38;;;14.93;;
20824;SDS011;10573;50.936;6.978;2023-12-07T09:59:48;19.70;;;14.83;;
20824;SDS011;10573;50.936;6.978;2023-12-07T10:02:13;21.43;;;14.97;;
20824;SDS011;10573;50.936;6.978;2023-12-07T10:04:40;19.73;;;14.37;;
20824;SDS011;10573;50.936;6.978;2023-12-07T10:07:06;22.15;;;13.65;;
20824;SDS011;10573;50.936;6.978;2023-12-07T10:09:34;20.92;;;13.77;;
20824;SDS011;10573;50.936;6.978;2023-12-07T10:12:03;19.42;;;13.88;;
20824;SDS011;10573;50.936;6.978;2023-12-07T10:14:30;20.67;;;13.70;;
20824;SDS011;10573;50.936;6.978;2023-12-07T10:16:56;20.23;;;14.10;;
20824;SDS011;10573;50.936;6.978;2023-12-07T10:19:22;19.98;;;13.30;;
20824;SDS011;10573;50.936;6.978;2023-12-07T10:21:48;19.77;;;12.90;;
20824;SDS011;10573;50.936;6.978;2023-12-07T10:24:17;17.95;;;12.73;;
20824;SDS011;10573;50.936;6.978;2023-12-07T10:26:48;18.80;;;12.25;;
20824;SDS011;10573;50.936;6.978;2023-12-07T10:29:16;16.58;;;12.63;;
20824;SDS011;10573;50.936;6.978;2023-12-07T10:31:43;16.25;;;12.40;;
20824;SDS011;10573;50.936;6.978;2023-12-07T10:34:09;16.35;;;12.45;;
20824;SDS011;10573;50.936;6.978;2023-12-07T10:36:35;16.80;;;11.43;;
20824;SDS011;10573;50.936;6.978;2023-12-07T10:39:02;15.07;;;11.45;;
20824;SDS011;10573;50.936;6.978;2023-12-07T10:41:31;13.57;;;11.20;;
20824;SDS011;10573;50.936;6.978;2023-12-07T10:44:03;14.70;;;11.68;;
20824;SDS011;10573;50.936;6.978;2023-12-07T10:46:32;16.75;;;12.32;;
20824;SDS011;10573;50.936;6.978;2023-12-07T10:49:00;15.18;;;11.90;;
20824;SDS011;10573;50.936;6.978;2023-12-07T10:54:03;14.03;;;10.57;;
20824;SDS011;10573;50.936;6.978;2023-12-07T10:56:39;15.85;;;11.00;;
20824;SDS011;10573;50.936;6.978;2023-12-07T10:59:11;14.48;;;11.55;;
20824;SDS011;10573;50.936;6.978;2023-12-07T11:01:41;16.13;;;12.80;;
20824;SDS011;10573;50.936;6.978;2023-12-07T11:04:10;17.38;;;13.02;;
20824;SDS011;10573;50.936;6.978;2023-12-07T11:06:49;19.48;;;13.77;;
20824;SDS011;10573;50.936;6.978;2023-12-07T11:09:20;19.00;;;13.02;;
20824;SDS011;10573;50.936;6.978;2023-12-07T11:11:54;19.55;;;13.82;;
20824;SDS011;10573;50.936;6.978;2023-12-07T11:14:26;22.23;;;13.55;;
20824;SDS011;10573;50.936;6.978;2023-12-07T11:16:52;20.23;;;13.20;;
20824;SDS011;10573;50.936;6.978;2023-12-07T11:21:52;16.70;;;12.02;;
20824;SDS011;10573;50.936;6.978;2023-12-07T11:24:18;17.83;;;12.73;;
20824;SDS011;10573;50.936;6.978;2023-12-07T11:26:43;17.98;;;12.43;;
20824;SDS011;10573;50.936;6.978;2023-12-07T11:29:09;17.75;;;13.10;;
20824;SDS011;10573;50.936;6.978;2023-12-07T11:31:36;18.93;;;12.73;;
20824;SDS011;10573;50.936;6.978;2023-12-07T11:34:05;15.23;;;12.55;;
20824;SDS011;10573;50.936;6.978;2023-12-07T11:36:32;16.00;;;12.32;;
20824;SDS011;10573;50.936;6.978;2023-12-07T11:41:29;17.67;;;11.07;;
20824;SDS011;10573;50.936;6.978;2023-12-07T11:43:59;15.30;;;12.02;;
20824;SDS011;10573;50.936;6.978;2023-12-07T11:46:25;16.60;;;11.68;;
20824;SDS011;10573;50.936;6.978;2023-12-07T11:48:50;15.00;;;11.30;;
20824;SDS011;10573;50.936;6.978;2023-12-07T11:51:16;15.60;;;11.35;;
20824;SDS011;10573;50.936;6.978;2023-12-07T11:53:43;15.52;;;11.82;;
20824;SDS011;10573;50.936;6.978;2023-12-07T11:56:09;15.48;;;10.68;;
20824;SDS011;10573;50.936;6.978;2023-12-07T11:58:37;13.68;;;11.07;;
20824;SDS011;10573;50.936;6.978;2023-12-07T12:01:03;17.17;;;11.15;;
20824;SDS011;10573;50.936;6.978;2023-12-07T12:03:30;15.63;;;10.32;;
20824;SDS011;10573;50.936;6.978;2023-12-07T12:06:03;13.50;;;9.73;;
20824;SDS011;10573;50.936;6.978;2023-12-07T12:08:30;10.50;;;8.00;;
20824;SDS011;10573;50.936;6.978;2023-12-07T12:10:56;11.40;;;8.15;;
20824;SDS011;10573;50.936;6.978;2023-12-07T12:13:28;11.02;;;8.32;;
20824;SDS011;10573;50.936;6.978;2023-12-07T12:16:00;12.48;;;7.65;;
20824;SDS011;10573;50.936;6.978;2023-12-07T12:18:26;9.30;;;7.93;;
20824;SDS011;10573;50.936;6.978;2023-12-07T12:20:53;14.00;;;7.70;;
20824;SDS011;10573;50.936;6.978;2023-12-07T12:23:19;13.70;;;8.43;;
20824;SDS011;10573;50.936;6.978;2023-12-07T12:25:45;11.10;;;7.63;;
20824;SDS011;10573;50.936;6.978;2023-12-07T12:28:11;11.00;;;8.43;;
20824;SDS011;10573;50.936;6.978;2023-12-07T12:30:41;12.63;;;7.75;;
20824;SDS011;10573;50.936;6.978;2023-12-07T12:33:11;10.95;;;7.25;;
20824;SDS011;10573;50.936;6.978;2023-12-07T12:35:37;11.60;;;7.07;;
20824;SDS011;10573;50.936;6.978;2023-12-07T12:38:03;10.10;;;7.40;;
20824;SDS011;10573;50.936;6.978;2023-12-07T12:40:34;11.05;;;6.72;;
20824;SDS011;10573;50.936;6.978;2023-12-07T12:42:59;10.03;;;7.20;;
20824;SDS011;10573;50.936;6.978;2023-12-07T12:45:25;10.05;;;6.43;;
20824;SDS011;10573;50.936;6.978;2023-12-07T12:47:50;11.07;;;7.10;;
20824;SDS011;10573;50.936;6.978;2023-12-07T12:50:38;10.60;;;7.20;;
20824;SDS011;10573;50.936;6.978;2023-12-07T12:53:06;8.50;;;6.95;;
20824;SDS011;10573;50.936;6.978;2023-12-07T12:55:36;9.15;;;6.70;;
20824;SDS011;10573;50.936;6.978;2023-12-07T12:58:03;8.53;;;7.00;;
20824;SDS011;10573;50.936;6.978;2023-12-07T13:00:33;11.65;;;7.20;;
20824;SDS011;10573;50.936;6.978;2023-12-07T13:03:00;8.90;;;6.70;;
20824;SDS011;10573;50.936;6.978;2023-12-07T13:05:26;11.10;;;7.03;;
20824;SDS011;10573;50.936;6.978;2023-12-07T13:07:52;8.30;;;6.95;;
20824;SDS011;10573;50.936;6.978;2023-12-07T13:10:17;9.93;;;6.87;;
20824;SDS011;10573;50.936;6.978;2023-12-07T13:12:43;12.23;;;7.03;;
20824;SDS011;10573;50.936;6.978;2023-12-07T13:15:10;10.73;;;6.95;;
20824;SDS011;10573;50.936;6.978;2023-12-07T13:17:37;8.25;;;6.63;;
20824;SDS011;10573;50.936;6.978;2023-12-07T13:20:04;14.05;;;7.53;;
20824;SDS011;10573;50.936;6.978;2023-12-07T13:22:39;13.20;;;6.90;;
20824;SDS011;10573;50.936;6.978;2023-12-07T13:25:05;8.55;;;6.78;;
20824;SDS011;10573;50.936;6.978;2023-12-07T13:27:32;12.63;;;7.33;;
20824;SDS011;10573;50.936;6.978;2023-12-07T13:29:58;11.35;;;7.70;;
20824;SDS011;10573;50.936;6.978;2023-12-07T13:32:24;13.63;;;7.50;;
20824;SDS011;10573;50.936;6.978;2023-12-07T13:34:49;10.50;;;7.03;;
20824;SDS011;10573;50.936;6.978;2023-12-07T13:37:15;12.30;;;6.75;;
20824;SDS011;10573;50.936;6.978;2023-12-07T13:39:40;10.90;;;6.82;;
20824;SDS011;10573;50.936;6.978;2023-12-07T13:42:08;7.13;;;6.40;;
20824;SDS011;10573;50.936;6.978;2023-12-07T13:44:35;11.95;;;6.47;;
20824;SDS011;10573;50.936;6.978;2023-12-07T13:47:01;9.73;;;6.57;;
20824;SDS011;10573;50.936;6.978;2023-12-07T13:49:27;9.35;;;6.95;;
20824;SDS011;10573;50.936;6.978;2023-12-07T13:51:52;12.57;;;6.90;;
20824;SDS011;10573;50.936;6.978;2023-12-07T13:54:17;10.03;;;6.50;;
20824;SDS011;10573;50.936;6.978;2023-12-07T13:56:42;10.03;;;6.47;;
20824;SDS011;10573;50.936;6.978;2023-12-07T13:59:08;12.27;;;6.67;;
20824;SDS011;10573;50.936;6.978;2023-12-07T14:01:35;12.00;;;6.57;;
20824;SDS011;10573;50.936;6.978;2023-12-07T14:04:02;8.82;;;6.30;;
20824;SDS011;10573;50.936;6.978;2023-12-07T14:06:28;9.30;;;6.37;;
20824;SDS011;10573;50.936;6.978;2023-12-07T14:08:53;9.80;;;6.77;;
20824;SDS011;10573;50.936;6.978;2023-12-07T14:11:18;11.25;;;7.00;;
20824;SDS011;10573;50.936;6.978;2023-12-07T14:13:44;9.50;;;7.20;;
20824;SDS011;10573;50.936;6.978;2023-12-07T14:16:13;11.20;;;8.15;;
20824;SDS011;10573;50.936;6.978;2023-12-07T14:18:41;11.20;;;7.43;;
20824;SDS011;10573;50.936;6.978;2023-12-07T14:21:07;11.68;;;7.78;;
20824;SDS011;10573;50.936;6.978;2023-12-07T14:23:33;11.13;;;8.20;;
20824;SDS011;10573;50.936;6.978;2023-12-07T14:25:59;12.97;;;8.17;;